Time;durP1;ratioP1;P1;durP2;ratioP2;P2;SDS_P1;SDS_P2;PMS_P1;PMS_P2;Temp;Humidity;BMP_temperature;BMP_pressure;BME280_temperature;BME280_humidity;BME280_pressure;Samples;Min_cycle;Max_cycle;Signal;HPM_P1;HPM_P2
2022/02/23 00:01:25;;;;;;;12.13;5.20;;;6.60;99.90;;;;;;5038161;28;20037;-74
2022/02/23 00:03:50;;;;;;;7.47;5.30;;;6.60;99.90;;;;;;5038672;28;20029;-74
2022/02/23 00:06:16;;;;;;;9.20;5.78;;;6.60;99.90;;;;;;5044652;28;20413;-74
2022/02/23 00:08:41;;;;;;;9.88;5.43;;;6.60;99.90;;;;;;5043753;28;20537;-75
2022/02/23 00:11:07;;;;;;;6.60;4.95;;;6.60;99.90;;;;;;5049481;28;20028;-74
2022/02/23 00:13:32;;;;;;;10.02;5.28;;;6.60;99.90;;;;;;5040160;28;20071;-74
2022/02/23 00:15:58;;;;;;;9.43;5.60;;;6.70;99.90;;;;;;5047283;28;20024;-74
2022/02/23 00:18:23;;;;;;;7.65;4.07;;;6.70;99.90;;;;;;5036299;28;20052;-74
2022/02/23 00:20:50;;;;;;;6.07;4.00;;;6.70;99.90;;;;;;5046284;28;20032;-74
2022/02/23 00:23:17;;;;;;;6.53;2.92;;;6.70;99.90;;;;;;5043589;28;20021;-74
2022/02/23 00:25:43;;;;;;;4.95;2.30;;;6.70;99.90;;;;;;5044753;28;20028;-75
2022/02/23 00:28:08;;;;;;;3.17;1.92;;;6.70;99.90;;;;;;5043348;28;20018;-75
2022/02/23 00:30:34;;;;;;;3.13;1.85;;;6.70;99.90;;;;;;5043147;28;20021;-75
2022/02/23 00:32:59;;;;;;;3.70;1.80;;;6.70;99.90;;;;;;5040501;28;20030;-75
2022/02/23 00:35:25;;;;;;;2.80;1.60;;;6.70;99.90;;;;;;5044642;28;20035;-75
2022/02/23 00:37:50;;;;;;;3.65;1.90;;;6.60;99.90;;;;;;5042840;28;20719;-75
2022/02/23 00:40:16;;;;;;;4.68;1.70;;;6.50;99.90;;;;;;5044220;28;20432;-76
2022/02/23 00:42:41;;;;;;;3.78;1.60;;;6.50;99.90;;;;;;5040382;28;20390;-73
2022/02/23 00:45:08;;;;;;;2.15;1.40;;;6.50;99.90;;;;;;5049106;28;20463;-74
2022/02/23 00:47:33;;;;;;;2.20;1.40;;;6.50;99.90;;;;;;5031756;28;20063;-74
2022/02/23 00:49:59;;;;;;;3.20;1.58;;;6.50;99.90;;;;;;5048011;28;20048;-74
2022/02/23 00:52:24;;;;;;;2.42;1.30;;;6.50;99.90;;;;;;5037610;28;20104;-74
2022/02/23 00:54:50;;;;;;;2.17;1.38;;;6.50;99.90;;;;;;5041694;28;20097;-74
2022/02/23 00:57:15;;;;;;;3.50;1.33;;;6.40;99.90;;;;;;5041759;28;20461;-74
2022/02/23 00:59:42;;;;;;;4.05;1.40;;;6.30;99.90;;;;;;5044028;28;20029;-74
2022/02/23 01:02:07;;;;;;;1.40;1.20;;;6.40;99.90;;;;;;5040097;28;20100;-74
2022/02/23 01:04:33;;;;;;;2.05;1.20;;;6.30;99.90;;;;;;5044007;28;20105;-74
2022/02/23 01:06:59;;;;;;;4.00;1.23;;;6.30;99.90;;;;;;5032858;28;20079;-74
2022/02/23 01:09:24;;;;;;;2.35;1.30;;;6.30;99.90;;;;;;5044011;28;20025;-74
2022/02/23 01:11:50;;;;;;;2.63;1.33;;;6.30;99.90;;;;;;5036489;28;20119;-74
2022/02/23 01:14:15;;;;;;;4.03;1.35;;;6.20;99.90;;;;;;5043590;28;20021;-74
2022/02/23 01:16:41;;;;;;;2.53;1.30;;;6.20;99.90;;;;;;5041500;28;20100;-74
2022/02/23 01:19:07;;;;;;;2.38;1.25;;;6.20;99.90;;;;;;5041084;28;20399;-74
2022/02/23 01:21:33;;;;;;;2.40;1.35;;;6.20;99.90;;;;;;5041650;28;20411;-74
2022/02/23 01:23:58;;;;;;;4.63;1.60;;;6.10;99.90;;;;;;5047733;28;20029;-75
2022/02/23 01:26:24;;;;;;;2.03;1.40;;;6.10;99.90;;;;;;5034797;28;20411;-74
2022/02/23 01:28:49;;;;;;;1.90;1.20;;;6.20;99.90;;;;;;5045013;28;20585;-74
2022/02/23 01:31:15;;;;;;;2.30;1.25;;;6.10;99.90;;;;;;5035515;28;20030;-75
2022/02/23 01:33:41;;;;;;;3.15;1.70;;;6.10;99.90;;;;;;5043835;28;20032;-75
2022/02/23 01:36:07;;;;;;;4.40;1.38;;;6.00;99.90;;;;;;5042608;28;20033;-76
2022/02/23 01:38:32;;;;;;;2.20;1.30;;;6.00;99.90;;;;;;5043605;28;20021;-76
2022/02/23 01:40:58;;;;;;;2.40;1.35;;;5.90;99.90;;;;;;5039994;28;20060;-75
2022/02/23 01:43:24;;;;;;;3.22;1.48;;;5.80;99.90;;;;;;5043642;28;20024;-74
2022/02/23 01:45:49;;;;;;;3.55;1.42;;;5.90;99.90;;;;;;5040979;28;20096;-76
2022/02/23 01:48:15;;;;;;;1.95;1.10;;;6.00;99.90;;;;;;5033550;28;20032;-74
2022/02/23 01:50:43;;;;;;;3.15;1.40;;;6.00;99.90;;;;;;5042649;28;20018;-75
2022/02/23 01:53:09;;;;;;;5.13;1.30;;;5.90;99.90;;;;;;5040990;28;20025;-75
2022/02/23 01:55:38;;;;;;;4.03;1.60;;;5.80;99.90;;;;;;5043845;28;20556;-75
2022/02/23 01:58:04;;;;;;;6.10;1.63;;;5.70;99.90;;;;;;5033905;28;20104;-75
2022/02/23 02:00:30;;;;;;;2.95;1.45;;;5.60;99.90;;;;;;5043223;28;20029;-74
2022/02/23 02:02:56;;;;;;;6.75;1.85;;;5.60;99.90;;;;;;5047012;28;20052;-74
2022/02/23 02:05:21;;;;;;;5.03;1.80;;;5.50;99.90;;;;;;5038335;28;20018;-74
2022/02/23 02:07:47;;;;;;;8.10;2.05;;;5.40;99.90;;;;;;5045320;28;20502;-75
2022/02/23 02:10:13;;;;;;;7.00;1.83;;;5.40;99.90;;;;;;5037773;28;20017;-75
2022/02/23 02:12:38;;;;;;;5.80;2.08;;;5.50;99.90;;;;;;5043007;28;20533;-74
2022/02/23 02:15:05;;;;;;;6.63;2.00;;;5.30;99.90;;;;;;5034542;28;20030;-75
2022/02/23 02:17:31;;;;;;;7.00;2.10;;;5.20;99.90;;;;;;5041349;28;20051;-74
2022/02/23 02:19:57;;;;;;;5.38;1.90;;;5.20;99.90;;;;;;5039407;28;20513;-74
2022/02/23 02:22:27;;;;;;;6.20;1.88;;;5.10;99.90;;;;;;5041609;28;20079;-74
2022/02/23 02:24:54;;;;;;;10.40;2.70;;;5.00;99.90;;;;;;5040772;28;20112;-75
2022/02/23 02:27:19;;;;;;;8.13;2.40;;;5.00;99.90;;;;;;5035923;28;20021;-74
2022/02/23 02:29:45;;;;;;;8.43;2.33;;;4.90;99.90;;;;;;5042381;28;20501;-74
2022/02/23 02:32:11;;;;;;;7.38;2.55;;;4.80;99.90;;;;;;5032964;28;20105;-75
2022/02/23 02:34:37;;;;;;;6.55;2.40;;;4.80;99.90;;;;;;5015560;28;20065;-75
2022/02/23 02:37:04;;;;;;;6.82;2.33;;;4.80;99.90;;;;;;5015647;28;20502;-75
2022/02/23 02:39:29;;;;;;;10.75;2.35;;;4.80;99.90;;;;;;5015474;28;20037;-74
2022/02/23 02:41:56;;;;;;;11.48;2.42;;;4.80;99.90;;;;;;5024422;28;20068;-73
2022/02/23 02:44:22;;;;;;;9.45;2.60;;;4.70;99.90;;;;;;5033867;28;20079;-73
2022/02/23 02:46:48;;;;;;;11.40;2.65;;;4.70;99.90;;;;;;5024201;28;20073;-74
2022/02/23 02:49:14;;;;;;;9.15;2.65;;;4.60;99.90;;;;;;5027132;28;20495;-73
2022/02/23 02:51:39;;;;;;;11.52;2.80;;;4.60;99.90;;;;;;5025831;28;20029;-73
2022/02/23 02:54:07;;;;;;;10.60;2.80;;;4.60;99.90;;;;;;5020382;28;20375;-73
2022/02/23 02:56:33;;;;;;;11.73;2.50;;;4.40;99.90;;;;;;5024150;28;20032;-73
2022/02/23 02:58:59;;;;;;;11.15;2.70;;;4.30;99.90;;;;;;5019139;28;20063;-74
2022/02/23 03:01:27;;;;;;;8.07;2.83;;;4.20;99.90;;;;;;5023960;28;20503;-74
2022/02/23 03:03:53;;;;;;;7.18;2.53;;;4.20;99.90;;;;;;5026986;28;20028;-74
2022/02/23 03:06:20;;;;;;;9.75;3.45;;;4.20;99.90;;;;;;5026072;28;20030;-74
2022/02/23 03:08:47;;;;;;;9.23;2.80;;;4.10;99.90;;;;;;5017072;28;20022;-75
2022/02/23 03:11:12;;;;;;;8.95;2.60;;;4.00;99.90;;;;;;5014799;28;20033;-75
2022/02/23 03:13:38;;;;;;;9.50;2.78;;;4.10;99.90;;;;;;5032612;28;20483;-74
2022/02/23 03:16:05;;;;;;;8.55;2.83;;;4.00;99.90;;;;;;5034469;28;20022;-75
2022/02/23 03:18:31;;;;;;;12.88;3.20;;;4.00;99.90;;;;;;5021799;28;20018;-74
2022/02/23 03:20:57;;;;;;;9.10;2.60;;;4.10;99.90;;;;;;5033086;28;20502;-73
2022/02/23 03:23:22;;;;;;;13.90;3.22;;;4.10;99.90;;;;;;5029591;28;20026;-74
2022/02/23 03:25:48;;;;;;;7.13;2.50;;;4.00;99.90;;;;;;5014669;28;20052;-74
2022/02/23 03:28:13;;;;;;;9.40;2.72;;;4.10;99.90;;;;;;5014488;28;20476;-75
2022/02/23 03:30:39;;;;;;;5.72;2.00;;;4.00;99.90;;;;;;5014299;28;20026;-74
2022/02/23 03:33:05;;;;;;;10.77;2.50;;;4.10;99.90;;;;;;5014424;28;20210;-75
2022/02/23 03:35:31;;;;;;;6.82;2.30;;;4.20;99.90;;;;;;5014564;28;20053;-74
2022/02/23 03:37:57;;;;;;;6.03;2.58;;;4.30;99.90;;;;;;5027675;28;20108;-74
2022/02/23 03:40:24;;;;;;;9.13;2.80;;;4.30;99.90;;;;;;5025240;28;20025;-74
2022/02/23 03:42:50;;;;;;;7.53;2.30;;;4.30;99.90;;;;;;5019742;28;20084;-74
2022/02/23 03:45:17;;;;;;;9.95;2.55;;;4.30;99.90;;;;;;5034158;28;20483;-75
2022/02/23 03:47:42;;;;;;;6.63;2.47;;;4.20;99.90;;;;;;5020478;28;20060;-76
2022/02/23 03:50:09;;;;;;;7.50;2.60;;;4.30;99.90;;;;;;5034102;28;20022;-74
2022/02/23 03:52:34;;;;;;;10.05;2.90;;;4.20;99.90;;;;;;5033658;28;20064;-75
2022/02/23 03:55:00;;;;;;;8.95;2.53;;;4.10;99.90;;;;;;5033794;28;20053;-74
2022/02/23 03:57:25;;;;;;;10.88;2.75;;;4.00;99.90;;;;;;5019265;28;20490;-74
2022/02/23 03:59:51;;;;;;;4.32;2.35;;;3.80;99.90;;;;;;5023417;28;20034;-74
2022/02/23 04:02:16;;;;;;;10.57;2.80;;;4.00;99.90;;;;;;5012462;28;20026;-74
2022/02/23 04:04:42;;;;;;;9.13;2.55;;;3.90;99.90;;;;;;5023058;28;20033;-76
2022/02/23 04:07:07;;;;;;;10.02;2.55;;;3.90;99.90;;;;;;5020410;28;20068;-75
2022/02/23 04:09:33;;;;;;;8.07;2.58;;;3.70;99.90;;;;;;5023430;28;20121;-76
2022/02/23 04:11:59;;;;;;;12.48;2.60;;;3.90;99.90;;;;;;5026754;28;20034;-75
2022/02/23 04:14:24;;;;;;;7.82;2.28;;;3.70;99.90;;;;;;5024139;28;20048;-74
2022/02/23 04:16:50;;;;;;;9.85;3.28;;;3.80;99.90;;;;;;5018973;28;20112;-74
2022/02/23 04:19:16;;;;;;;12.18;2.85;;;3.60;99.90;;;;;;5032655;28;20086;-74
2022/02/23 04:21:41;;;;;;;11.90;3.17;;;3.60;99.90;;;;;;5028496;28;20026;-75
2022/02/23 04:24:08;;;;;;;6.05;2.40;;;3.50;99.90;;;;;;5025142;28;20022;-74
2022/02/23 04:26:35;;;;;;;12.13;3.00;;;3.40;99.90;;;;;;5015204;28;20057;-74
2022/02/23 04:29:01;;;;;;;12.00;3.25;;;3.50;99.90;;;;;;5013575;28;20487;-74
2022/02/23 04:31:28;;;;;;;12.00;3.45;;;3.40;99.90;;;;;;5013175;28;20034;-75
2022/02/23 04:33:54;;;;;;;8.65;2.83;;;3.40;99.90;;;;;;5024870;28;20017;-74
2022/02/23 04:36:20;;;;;;;10.02;4.10;;;3.30;99.90;;;;;;5014734;28;20024;-75
2022/02/23 04:38:46;;;;;;;10.93;4.13;;;3.20;99.90;;;;;;5013330;28;20048;-74
2022/02/23 04:41:11;;;;;;;14.30;4.70;;;3.00;99.90;;;;;;5011693;28;20025;-74
2022/02/23 04:43:37;;;;;;;11.70;3.83;;;3.10;99.90;;;;;;5024649;28;20084;-74
2022/02/23 04:46:07;;;;;;;11.32;3.33;;;3.00;99.90;;;;;;5018580;28;20021;-74
2022/02/23 04:48:34;;;;;;;10.30;3.20;;;3.00;99.90;;;;;;5019535;28;20057;-74
2022/02/23 04:50:59;;;;;;;9.05;3.70;;;3.00;99.90;;;;;;5012795;28;20076;-74
2022/02/23 04:53:25;;;;;;;10.98;3.63;;;3.10;99.90;;;;;;5012909;28;20030;-74
2022/02/23 04:55:51;;;;;;;11.27;2.85;;;3.00;99.90;;;;;;5018514;28;20403;-74
2022/02/23 04:58:16;;;;;;;8.98;2.83;;;2.70;99.90;;;;;;5019161;28;20022;-74
2022/02/23 05:00:42;;;;;;;13.30;3.60;;;2.60;99.90;;;;;;5012826;28;20034;-75
2022/02/23 05:03:08;;;;;;;14.93;3.50;;;2.60;99.90;;;;;;5023708;28;20025;-76
2022/02/23 05:05:34;;;;;;;8.65;3.15;;;2.60;99.90;;;;;;5019340;28;20037;-76
2022/02/23 05:08:00;;;;;;;10.75;3.53;;;2.40;99.90;;;;;;5020285;28;20025;-75
2022/02/23 05:10:26;;;;;;;10.45;3.25;;;2.40;99.90;;;;;;5018131;28;20029;-75
2022/02/23 05:12:52;;;;;;;13.75;5.07;;;2.30;99.90;;;;;;5018514;28;20034;-75
2022/02/23 05:15:18;;;;;;;21.20;7.15;;;2.20;99.90;;;;;;5026012;28;20026;-76
2022/02/23 05:17:44;;;;;;;10.88;7.10;;;2.10;99.90;;;;;;5012497;28;20022;-76
2022/02/23 05:20:10;;;;;;;14.40;5.28;;;1.80;99.90;;;;;;5017325;28;20022;-76
2022/02/23 05:22:36;;;;;;;12.40;6.30;;;1.80;99.90;;;;;;5020283;28;20030;-75
2022/02/23 05:25:03;;;;;;;9.60;4.20;;;1.80;99.90;;;;;;5017610;28;20017;-75
2022/02/23 05:27:28;;;;;;;10.05;3.63;;;1.80;99.90;;;;;;5032160;28;20136;-75
2022/02/23 05:29:54;;;;;;;11.93;4.10;;;1.90;99.90;;;;;;5019270;28;20104;-75
2022/02/23 05:32:19;;;;;;;13.27;4.38;;;1.80;99.90;;;;;;5019937;28;20119;-76
2022/02/23 05:34:45;;;;;;;13.05;6.28;;;2.00;99.90;;;;;;5016677;28;20033;-75
2022/02/23 05:37:11;;;;;;;12.05;5.07;;;1.90;99.90;;;;;;5020096;28;20108;-75
2022/02/23 05:39:37;;;;;;;12.73;4.22;;;2.10;99.90;;;;;;5024344;28;20026;-76
2022/02/23 05:42:02;;;;;;;10.60;3.78;;;2.20;99.90;;;;;;5023677;28;20104;-74
2022/02/23 05:44:28;;;;;;;12.38;4.13;;;2.20;99.90;;;;;;5017542;28;20386;-75
2022/02/23 05:46:54;;;;;;;11.43;3.85;;;2.20;99.90;;;;;;5018796;28;20033;-76
2022/02/23 05:49:19;;;;;;;15.45;4.32;;;2.10;99.90;;;;;;5016226;28;20074;-74
2022/02/23 05:51:48;;;;;;;16.35;4.10;;;2.20;99.90;;;;;;5020048;28;20037;-75
2022/02/23 05:54:15;;;;;;;12.68;3.88;;;2.10;99.90;;;;;;5029451;28;20056;-73
2022/02/23 05:56:41;;;;;;;13.95;4.90;;;2.10;99.90;;;;;;5030407;28;20022;-73
2022/02/23 05:59:07;;;;;;;15.85;6.78;;;2.10;99.90;;;;;;5031772;28;20030;-74
2022/02/23 06:01:34;;;;;;;23.98;10.63;;;2.10;99.90;;;;;;5021302;28;20025;-74
2022/02/23 06:04:00;;;;;;;19.25;6.82;;;2.10;99.90;;;;;;5016353;28;20519;-74
2022/02/23 06:06:25;;;;;;;12.73;5.20;;;2.00;99.90;;;;;;5030482;28;20030;-74
2022/02/23 06:08:51;;;;;;;14.68;5.88;;;1.90;99.90;;;;;;5015237;28;20021;-74
2022/02/23 06:11:17;;;;;;;14.48;6.07;;;1.90;99.90;;;;;;5017431;28;20045;-74
2022/02/23 06:13:42;;;;;;;14.13;6.00;;;1.90;99.90;;;;;;5011840;28;20032;-74
2022/02/23 06:16:08;;;;;;;12.90;5.07;;;1.90;99.90;;;;;;5011862;28;20480;-74
2022/02/23 06:18:33;;;;;;;14.82;5.53;;;1.90;99.90;;;;;;5017664;28;20021;-74
2022/02/23 06:20:59;;;;;;;14.70;5.70;;;1.80;99.90;;;;;;5031333;28;20028;-74
2022/02/23 06:23:25;;;;;;;15.32;4.63;;;1.80;99.90;;;;;;5031371;28;20022;-74
2022/02/23 06:25:52;;;;;;;16.98;4.75;;;1.80;99.90;;;;;;5030079;28;20033;-74
2022/02/23 06:28:19;;;;;;;14.88;4.95;;;1.90;99.90;;;;;;5012584;28;20025;-74
2022/02/23 06:30:45;;;;;;;16.48;5.75;;;1.80;99.90;;;;;;5011461;28;20026;-74
2022/02/23 06:33:11;;;;;;;29.05;14.05;;;1.80;99.90;;;;;;5017497;28;20270;-74
2022/02/23 06:35:37;;;;;;;19.02;10.23;;;1.80;99.90;;;;;;5017569;28;20038;-74
2022/02/23 06:38:04;;;;;;;19.00;9.82;;;1.80;99.90;;;;;;5011471;28;20110;-75
2022/02/23 06:40:29;;;;;;;32.80;17.45;;;1.70;99.90;;;;;;5011789;28;20105;-76
2022/02/23 06:42:55;;;;;;;35.28;21.02;;;1.70;99.90;;;;;;5024756;28;20037;-74
2022/02/23 06:45:21;;;;;;;45.50;26.80;;;1.70;99.90;;;;;;5011653;28;20476;-74
2022/02/23 06:47:47;;;;;;;37.28;22.33;;;1.80;99.90;;;;;;5011397;28;20068;-74
2022/02/23 06:50:13;;;;;;;20.58;11.30;;;1.80;99.90;;;;;;5011507;28;20029;-74
2022/02/23 06:52:40;;;;;;;19.48;9.80;;;1.80;99.90;;;;;;5011373;28;20033;-74
2022/02/23 06:55:07;;;;;;;19.90;9.82;;;1.80;99.90;;;;;;5010230;28;20033;-74
2022/02/23 06:57:37;;;;;;;23.70;10.70;;;1.80;99.90;;;;;;5011258;28;20030;-74
2022/02/23 07:00:06;;;;;;;14.18;8.70;;;1.80;99.90;;;;;;5024410;28;20387;-74
2022/02/23 07:02:32;;;;;;;26.75;13.18;;;1.80;99.90;;;;;;5011082;28;20022;-74
2022/02/23 07:04:58;;;;;;;17.63;8.93;;;1.90;99.90;;;;;;5023185;28;20313;-74
2022/02/23 07:07:23;;;;;;;13.18;6.72;;;1.90;99.90;;;;;;5017864;28;20083;-75
2022/02/23 07:09:49;;;;;;;15.07;7.38;;;1.90;99.90;;;;;;5017946;28;20026;-75
2022/02/23 07:12:15;;;;;;;14.30;6.72;;;2.00;99.90;;;;;;5021678;28;20029;-76
2022/02/23 07:14:40;;;;;;;17.90;6.95;;;2.10;99.90;;;;;;5024436;28;20055;-75
2022/02/23 07:17:06;;;;;;;14.75;7.60;;;2.20;99.90;;;;;;5020329;28;20466;-75
2022/02/23 07:19:33;;;;;;;16.55;7.43;;;2.20;99.90;;;;;;5020428;28;20562;-75
2022/02/23 07:21:58;;;;;;;18.50;6.85;;;2.40;99.90;;;;;;5013102;28;20480;-73
2022/02/23 07:24:24;;;;;;;17.83;7.07;;;2.40;99.90;;;;;;5014606;28;20057;-72
2022/02/23 07:26:50;;;;;;;19.42;7.15;;;2.50;99.90;;;;;;5016049;28;20022;-75
2022/02/23 07:29:15;;;;;;;24.35;11.95;;;2.60;99.90;;;;;;5014755;28;20562;-76
2022/02/23 07:31:43;;;;;;;30.90;15.45;;;2.70;99.90;;;;;;5027654;28;20033;-76
2022/02/23 07:34:08;;;;;;;28.23;14.48;;;2.70;99.90;;;;;;5014761;28;20053;-75
2022/02/23 07:36:34;;;;;;;24.33;13.07;;;2.70;99.90;;;;;;5027838;28;20084;-76
2022/02/23 07:38:59;;;;;;;34.75;19.85;;;2.90;99.90;;;;;;5026646;28;20030;-76
2022/02/23 07:41:25;;;;;;;26.98;17.65;;;3.10;99.90;;;;;;5020596;28;20043;-76
2022/02/23 07:43:52;;;;;;;27.52;15.13;;;3.00;99.90;;;;;;5021301;28;20021;-76
2022/02/23 07:46:18;;;;;;;40.05;25.67;;;3.20;99.90;;;;;;5027282;28;20030;-75
2022/02/23 07:48:47;;;;;;;33.15;19.05;;;3.10;99.90;;;;;;5026017;28;20022;-76
2022/02/23 07:51:17;;;;;;;25.13;11.63;;;3.30;99.90;;;;;;5020663;28;20043;-74
2022/02/23 07:53:43;;;;;;;20.65;9.52;;;3.30;99.90;;;;;;5020543;28;20076;-74
2022/02/23 07:56:09;;;;;;;21.27;9.52;;;3.40;99.90;;;;;;5025218;28;20026;-75
2022/02/23 07:58:34;;;;;;;25.77;15.10;;;3.40;99.90;;;;;;5027289;28;20423;-75
2022/02/23 08:01:00;;;;;;;25.45;10.30;;;3.50;99.90;;;;;;5021249;28;20032;-74
2022/02/23 08:03:26;;;;;;;21.63;10.30;;;3.60;99.90;;;;;;5033593;28;20598;-75
2022/02/23 08:05:53;;;;;;;27.90;12.98;;;3.60;99.90;;;;;;5026224;28;20026;-74
2022/02/23 08:08:19;;;;;;;22.23;8.45;;;3.80;99.90;;;;;;5027023;28;20026;-76
2022/02/23 08:10:48;;;;;;;20.08;7.88;;;3.90;99.90;;;;;;5021668;28;20022;-76
2022/02/23 08:13:15;;;;;;;20.23;7.70;;;4.00;99.90;;;;;;5019176;28;20033;-76
2022/02/23 08:21:13;;;;;;;19.48;9.65;;;4.20;99.90;;;;;;5023752;28;20037;-74
2022/02/23 08:23:43;;;;;;;18.25;8.68;;;4.30;99.90;;;;;;5013568;28;20388;-75
2022/02/23 08:26:10;;;;;;;19.85;7.63;;;4.40;99.90;;;;;;5025207;28;20026;-75
2022/02/23 08:28:35;;;;;;;22.80;7.90;;;4.60;99.90;;;;;;5013020;28;20291;-75
2022/02/23 08:31:02;;;;;;;18.67;6.95;;;4.60;99.90;;;;;;5025209;28;20017;-75
2022/02/23 08:33:27;;;;;;;24.17;7.13;;;4.70;99.90;;;;;;5021157;28;20026;-75
2022/02/23 08:35:53;;;;;;;15.65;7.00;;;4.80;99.90;;;;;;5018818;28;20022;-74
2022/02/23 08:38:20;;;;;;;19.55;7.20;;;4.70;99.90;;;;;;5013267;28;20502;-74
2022/02/23 08:40:46;;;;;;;19.63;6.82;;;4.80;99.90;;;;;;5013120;28;20025;-74
2022/02/23 08:43:13;;;;;;;18.42;7.30;;;5.00;99.90;;;;;;5012521;28;20541;-74
2022/02/23 08:45:39;;;;;;;16.92;6.15;;;5.00;99.90;;;;;;5011744;28;20017;-74
2022/02/23 08:48:05;;;;;;;16.77;5.97;;;5.20;99.90;;;;;;5012909;28;20458;-74
2022/02/23 08:50:31;;;;;;;13.15;5.57;;;5.30;99.90;;;;;;5012714;28;20018;-74
2022/02/23 08:52:57;;;;;;;14.75;4.97;;;5.40;99.90;;;;;;5013096;28;20535;-74
2022/02/23 08:55:23;;;;;;;14.50;5.30;;;5.50;99.90;;;;;;5011545;28;20765;-74
2022/02/23 08:57:49;;;;;;;16.63;6.13;;;5.60;99.90;;;;;;5021220;28;20059;-74
2022/02/23 09:00:15;;;;;;;13.88;4.90;;;5.70;99.90;;;;;;5016190;28;20030;-75
2022/02/23 09:02:41;;;;;;;15.32;5.20;;;6.00;99.90;;;;;;5011550;28;20037;-74
2022/02/23 09:05:07;;;;;;;16.83;4.97;;;6.00;99.90;;;;;;5014750;28;20026;-74
2022/02/23 09:07:32;;;;;;;12.88;4.78;;;6.00;99.90;;;;;;5024206;28;20028;-74
2022/02/23 09:09:58;;;;;;;17.25;4.75;;;5.90;99.90;;;;;;5027554;28;20030;-74
2022/02/23 09:12:24;;;;;;;17.25;5.05;;;6.00;99.90;;;;;;5024235;28;20041;-74
2022/02/23 09:14:51;;;;;;;14.90;4.53;;;6.10;99.90;;;;;;5027193;28;20032;-74
2022/02/23 09:17:17;;;;;;;13.23;4.68;;;6.30;99.90;;;;;;5024081;28;20504;-74
2022/02/23 09:19:43;;;;;;;13.70;4.50;;;6.60;99.90;;;;;;5026303;28;20029;-74
2022/02/23 09:22:08;;;;;;;17.38;4.22;;;6.50;99.90;;;;;;5031845;28;20028;-74
2022/02/23 09:24:34;;;;;;;14.35;4.68;;;6.50;99.90;;;;;;5029963;28;20434;-75
2022/02/23 09:27:02;;;;;;;18.67;4.38;;;6.30;99.90;;;;;;5021795;28;20050;-75
2022/02/23 09:29:28;;;;;;;13.68;4.22;;;6.20;99.90;;;;;;5027046;28;20145;-75
2022/02/23 09:31:53;;;;;;;17.05;4.63;;;6.30;99.90;;;;;;5023991;28;20061;-74
2022/02/23 09:34:23;;;;;;;14.63;4.55;;;6.30;99.90;;;;;;5032068;28;20074;-74
2022/02/23 09:36:49;;;;;;;13.20;4.30;;;6.50;99.90;;;;;;5027744;28;20026;-74
2022/02/23 09:39:15;;;;;;;13.50;4.43;;;6.50;99.90;;;;;;5014838;28;20029;-76
2022/02/23 09:41:41;;;;;;;13.23;4.10;;;6.60;99.90;;;;;;5020301;28;20063;-75
2022/02/23 09:44:07;;;;;;;15.18;3.85;;;6.50;99.90;;;;;;5017205;28;20042;-74
2022/02/23 09:46:33;;;;;;;13.55;3.78;;;6.60;99.90;;;;;;5025556;28;20022;-74
2022/02/23 09:48:59;;;;;;;10.55;4.03;;;6.60;99.90;;;;;;5029472;28;20022;-74
2022/02/23 09:51:24;;;;;;;12.98;3.63;;;6.50;99.90;;;;;;5016246;28;20016;-74
2022/02/23 09:53:55;;;;;;;12.85;3.60;;;6.70;99.90;;;;;;5015159;28;20034;-75
2022/02/23 09:56:21;;;;;;;10.20;3.55;;;6.60;99.90;;;;;;5012020;28;20072;-76
2022/02/23 09:58:48;;;;;;;12.15;3.53;;;6.60;99.90;;;;;;5025700;28;20414;-76
2022/02/23 10:01:17;;;;;;;10.45;3.40;;;6.60;99.90;;;;;;5020764;28;20071;-76
2022/02/23 10:03:47;;;;;;;11.95;3.70;;;6.60;99.90;;;;;;5017093;28;20025;-76
2022/02/23 10:06:31;;;;;;;13.80;3.78;;;6.70;99.90;;;;;;5021746;28;20483;-76
2022/02/23 10:09:04;;;;;;;10.70;3.25;;;6.70;99.90;;;;;;5025268;28;20029;-76
2022/02/23 10:11:30;;;;;;;13.23;3.95;;;6.70;99.90;;;;;;5024912;28;20071;-76
2022/02/23 10:13:56;;;;;;;12.48;3.38;;;6.90;99.90;;;;;;5010649;28;20065;-76
2022/02/23 10:16:35;;;;;;;11.57;3.47;;;6.80;99.90;;;;;;5024839;28;20064;-76
2022/02/23 10:19:12;;;;;;;10.40;2.80;;;6.90;99.90;;;;;;5027467;28;20029;-76
2022/02/23 10:21:52;;;;;;;11.52;3.75;;;7.00;99.90;;;;;;5025705;28;20026;-76
2022/02/23 10:24:31;;;;;;;14.57;4.20;;;7.10;99.90;;;;;;5028407;28;20502;-76
2022/02/23 10:27:08;;;;;;;10.07;3.30;;;7.10;99.90;;;;;;5020936;28;20105;-76
2022/02/23 10:29:45;;;;;;;13.13;4.18;;;7.10;99.90;;;;;;5017445;28;20407;-76
2022/02/23 10:32:12;;;;;;;11.60;2.85;;;7.10;99.90;;;;;;5020432;28;20026;-76
2022/02/23 10:34:43;;;;;;;9.30;3.10;;;7.10;99.90;;;;;;5015686;28;20026;-76
2022/02/23 10:37:11;;;;;;;9.57;3.17;;;7.00;99.90;;;;;;5020138;28;20669;-74
2022/02/23 10:39:43;;;;;;;10.80;3.88;;;7.20;99.90;;;;;;5011606;28;20026;-75
2022/02/23 10:42:14;;;;;;;13.10;3.80;;;7.30;99.90;;;;;;5023577;28;20029;-75
2022/02/23 10:44:45;;;;;;;9.95;3.40;;;7.20;99.90;;;;;;5018219;28;20105;-75
2022/02/23 10:47:22;;;;;;;9.23;3.10;;;7.30;99.90;;;;;;5031360;28;20387;-75
2022/02/23 10:50:16;;;;;;;10.55;2.85;;;7.30;99.90;;;;;;5019142;28;20436;-76
2022/02/23 10:52:56;;;;;;;13.23;3.55;;;7.30;99.90;;;;;;5021585;28;20028;-76
2022/02/23 10:55:31;;;;;;;10.75;3.17;;;7.70;99.90;;;;;;5020649;28;20080;-75
2022/02/23 10:58:02;;;;;;;8.30;2.43;;;7.50;99.90;;;;;;5025016;28;20096;-74
2022/02/23 11:00:43;;;;;;;14.07;3.28;;;7.40;99.90;;;;;;5013643;28;20034;-75
2022/02/23 11:03:10;;;;;;;9.43;3.03;;;7.50;99.90;;;;;;5017171;28;20553;-73
2022/02/23 11:05:36;;;;;;;12.52;3.33;;;7.50;99.90;;;;;;5022043;28;20379;-76
2022/02/23 11:08:03;;;;;;;9.73;3.08;;;7.60;99.90;;;;;;5013573;28;20068;-75
2022/02/23 11:10:29;;;;;;;11.25;3.50;;;7.80;99.90;;;;;;5027891;28;20427;-75
2022/02/23 11:12:57;;;;;;;9.43;2.95;;;7.80;99.90;;;;;;5026530;28;20029;-75
2022/02/23 11:15:24;;;;;;;8.63;2.90;;;7.90;99.90;;;;;;5034505;28;20034;-75
2022/02/23 11:17:53;;;;;;;9.88;3.13;;;7.80;99.90;;;;;;5021344;28;20030;-74
2022/02/23 11:20:27;;;;;;;8.30;3.17;;;7.80;99.90;;;;;;5021026;28;20053;-75
2022/02/23 11:23:02;;;;;;;13.57;3.15;;;8.00;99.90;;;;;;5024729;28;20035;-74
2022/02/23 11:25:33;;;;;;;8.57;2.80;;;7.80;99.90;;;;;;5024102;28;20026;-75
2022/02/23 11:28:09;;;;;;;8.85;3.08;;;7.80;99.90;;;;;;5015965;28;20018;-75
2022/02/23 11:30:35;;;;;;;8.18;2.75;;;7.80;99.90;;;;;;5023343;28;20056;-75
2022/02/23 11:33:03;;;;;;;12.18;3.75;;;7.80;99.90;;;;;;5026646;28;20066;-75
2022/02/23 11:35:45;;;;;;;8.57;2.70;;;7.80;99.90;;;;;;5025256;28;20048;-74
2022/02/23 11:38:16;;;;;;;8.23;3.00;;;8.00;99.90;;;;;;5035441;28;20029;-74
2022/02/23 11:40:54;;;;;;;8.00;3.03;;;8.00;99.90;;;;;;5036634;28;20032;-74
2022/02/23 11:43:39;;;;;;;9.15;3.22;;;8.10;99.90;;;;;;5031985;28;20036;-75
2022/02/23 11:46:06;;;;;;;10.82;3.17;;;8.00;99.90;;;;;;5040638;28;20386;-75
2022/02/23 11:48:49;;;;;;;10.98;3.03;;;8.00;99.90;;;;;;5038467;28;20036;-74
2022/02/23 11:51:31;;;;;;;8.60;2.92;;;7.90;99.90;;;;;;5043707;28;20052;-74
2022/02/23 11:53:58;;;;;;;7.28;3.22;;;7.90;99.90;;;;;;5042465;28;20051;-74
2022/02/23 11:56:24;;;;;;;14.02;3.30;;;8.10;99.90;;;;;;5045404;28;20023;-75
2022/02/23 11:58:52;;;;;;;11.25;3.38;;;8.30;99.90;;;;;;5042696;28;20029;-75
2022/02/23 12:01:22;;;;;;;12.93;3.00;;;8.20;99.90;;;;;;5039654;28;20017;-75
2022/02/23 12:04:08;;;;;;;10.20;2.83;;;8.40;99.90;;;;;;5041996;28;20092;-75
2022/02/23 12:07:08;;;;;;;9.30;3.17;;;8.60;99.90;;;;;;5035386;28;20013;-75
2022/02/23 12:09:49;;;;;;;6.70;2.10;;;8.90;99.90;;;;;;5039859;28;20064;-75
2022/02/23 12:12:33;;;;;;;7.30;3.10;;;9.40;99.90;;;;;;5042809;28;20024;-76
2022/02/23 12:15:03;;;;;;;6.88;2.15;;;9.90;99.90;;;;;;5039449;28;20032;-76
2022/02/23 12:17:51;;;;;;;8.35;2.22;;;9.80;99.90;;;;;;5044938;28;20017;-74
2022/02/23 12:20:34;;;;;;;10.75;2.70;;;9.90;99.90;;;;;;5044755;28;20100;-73
2022/02/23 12:23:09;;;;;;;8.27;2.35;;;10.10;99.90;;;;;;5044282;28;20482;-73
2022/02/23 12:26:10;;;;;;;5.40;1.95;;;10.10;99.90;;;;;;5039912;28;20407;-73
2022/02/23 12:28:37;;;;;;;9.00;2.55;;;10.40;99.90;;;;;;5039118;28;20014;-73
2022/02/23 12:31:14;;;;;;;8.45;2.20;;;9.80;99.90;;;;;;5041192;28;20021;-73
2022/02/23 12:33:42;;;;;;;5.85;2.33;;;9.50;99.90;;;;;;5045277;28;20387;-72
2022/02/23 12:36:11;;;;;;;7.57;2.80;;;9.30;99.90;;;;;;5038696;28;20029;-72
2022/02/23 12:38:48;;;;;;;7.97;3.05;;;9.50;99.90;;;;;;5039917;28;20497;-75
2022/02/23 12:41:19;;;;;;;10.20;3.05;;;9.20;99.90;;;;;;5041626;28;20021;-76
2022/02/23 12:44:05;;;;;;;8.93;2.50;;;8.80;99.90;;;;;;5044454;28;20021;-75
2022/02/23 12:46:48;;;;;;;11.80;2.75;;;8.90;99.90;;;;;;5035131;28;20017;-75
2022/02/23 12:49:15;;;;;;;9.05;2.58;;;9.00;99.90;;;;;;5038212;28;20018;-75
2022/02/23 12:51:43;;;;;;;8.32;3.08;;;9.00;99.90;;;;;;5044182;28;20017;-76
2022/02/23 12:54:11;;;;;;;6.90;2.50;;;9.10;99.90;;;;;;5039808;28;20030;-75
2022/02/23 12:56:39;;;;;;;10.07;2.40;;;9.10;99.90;;;;;;5044142;28;20031;-74
2022/02/23 12:59:10;;;;;;;8.93;2.05;;;9.20;99.90;;;;;;5040031;28;20049;-75